Aviation Digital Data Service (ADDS)

Output produced by TAFs form (2345 UTC 18 July 2018)
found at http://www.aviationweather.gov/adds/tafs/
 
RJOH 182300Z VRB02KT 8000 FEW030 28/23 Q1011
TAF RJOH 182308Z 1900/2006 22004KT 9000 FEW030 
     BECMG 1900/1902 05006KT 
     BECMG 1912/1915 18004KT 
     BECMG 2000/2003 04006KT